Time;durP1;ratioP1;P1;durP2;ratioP2;P2;SDS_P1;SDS_P2;PMS_P1;PMS_P2;Temp;Humidity;BMP_temperature;BMP_pressure;BME280_temperature;BME280_humidity;BME280_pressure;Samples;Min_cycle;Max_cycle;Signal;HPM_P1;HPM_P2
2023/06/24 00:00:36;;;;;;;4.07;3.20;;;28.70;98.50;;;;;;5034731;28;20280;-86
2023/06/24 00:03:09;;;;;;;3.60;3.30;;;28.60;99.10;;;;;;5043568;28;20602;-86
2023/06/24 00:05:41;;;;;;;3.60;3.30;;;28.80;98.40;;;;;;5050638;28;20291;-86
2023/06/24 00:08:14;;;;;;;3.60;3.30;;;28.70;99.20;;;;;;5052577;28;20707;-86
2023/06/24 00:10:46;;;;;;;3.88;3.10;;;28.70;99.90;;;;;;5048704;28;20213;-86
2023/06/24 00:13:19;;;;;;;3.65;3.28;;;28.70;98.70;;;;;;5043644;28;20288;-86
2023/06/24 00:15:49;;;;;;;3.03;2.83;;;28.40;99.10;;;;;;5051113;28;20225;-85
2023/06/24 00:18:20;;;;;;;3.88;3.05;;;28.30;99.10;;;;;;5036297;28;20595;-86
2023/06/24 00:20:51;;;;;;;3.78;2.75;;;28.40;98.50;;;;;;5050424;28;20212;-85
2023/06/24 00:23:26;;;;;;;4.00;3.00;;;28.30;98.80;;;;;;5051923;28;20220;-85
2023/06/24 00:25:57;;;;;;;3.50;3.20;;;28.30;97.80;;;;;;5038608;28;20200;-87
2023/06/24 00:28:29;;;;;;;6.10;3.60;;;28.30;99.10;;;;;;5053745;28;20205;-87
2023/06/24 00:31:02;;;;;;;3.63;3.33;;;28.40;98.60;;;;;;5054824;28;20277;-86
2023/06/24 00:33:35;;;;;;;3.13;2.83;;;28.40;98.90;;;;;;5050123;28;20208;-87
2023/06/24 00:36:08;;;;;;;3.45;3.15;;;28.30;97.60;;;;;;5035599;28;20272;-87
2023/06/24 00:38:38;;;;;;;4.30;3.13;;;28.40;98.00;;;;;;5034759;28;20251;-87
2023/06/24 00:41:10;;;;;;;3.35;3.05;;;28.30;98.60;;;;;;5035698;28;20934;-87
2023/06/24 00:43:43;;;;;;;4.50;3.35;;;28.50;97.80;;;;;;5043408;28;20276;-87
2023/06/24 00:46:15;;;;;;;3.20;2.92;;;28.60;98.70;;;;;;5035391;28;20628;-87
2023/06/24 00:48:45;;;;;;;3.00;2.70;;;28.50;97.60;;;;;;5034401;28;20725;-88
2023/06/24 00:51:16;;;;;;;5.03;3.08;;;28.30;96.60;;;;;;5040681;28;20254;-87
2023/06/24 00:53:47;;;;;;;3.17;2.97;;;28.70;97.80;;;;;;5048175;28;20205;-87
2023/06/24 00:56:19;;;;;;;2.97;2.77;;;28.90;96.60;;;;;;5035930;28;20232;-87
2023/06/24 00:58:52;;;;;;;3.58;2.85;;;29.50;96.80;;;;;;5046697;28;20617;-86
2023/06/24 01:01:24;;;;;;;3.05;2.75;;;29.80;95.40;;;;;;5041341;28;20213;-84
2023/06/24 01:03:55;;;;;;;4.15;3.05;;;30.10;95.40;;;;;;5041862;28;20667;-85
2023/06/24 01:06:29;;;;;;;3.20;2.90;;;30.20;93.40;;;;;;5034602;28;20209;-85
2023/06/24 01:09:00;;;;;;;3.60;3.15;;;30.70;94.10;;;;;;5039250;28;20196;-86
2023/06/24 01:11:31;;;;;;;5.25;2.97;;;31.10;93.50;;;;;;5039867;28;20262;-86
2023/06/24 01:14:04;;;;;;;3.80;2.92;;;30.90;92.50;;;;;;5040302;28;20240;-86
2023/06/24 01:16:45;;;;;;;3.55;3.25;;;30.90;92.80;;;;;;5040914;28;20277;-86
2023/06/24 01:19:35;;;;;;;3.05;2.85;;;31.20;91.50;;;;;;5041406;28;20269;-87
2023/06/24 01:22:17;;;;;;;3.08;2.78;;;31.50;93.10;;;;;;5051466;28;20212;-86
2023/06/24 01:25:04;;;;;;;3.45;2.92;;;31.80;92.10;;;;;;5050330;28;20240;-86
2023/06/24 01:28:14;;;;;;;3.72;3.05;;;30.90;90.50;;;;;;5034030;28;20216;-86
2023/06/24 01:31:06;;;;;;;3.55;3.25;;;30.70;91.40;;;;;;5038931;28;20227;-86
2023/06/24 01:33:49;;;;;;;3.40;3.10;;;31.40;90.60;;;;;;4704822;28;10000376;-87
2023/06/24 01:36:22;;;;;;;5.53;3.38;;;31.30;90.10;;;;;;5059702;28;20266;-86
2023/06/24 01:38:57;;;;;;;7.30;3.30;;;30.90;90.30;;;;;;5047538;28;20657;-86
2023/06/24 01:41:33;;;;;;;4.65;2.85;;;31.00;89.40;;;;;;5033534;28;20278;-88
2023/06/24 01:44:05;;;;;;;3.25;2.92;;;30.90;90.30;;;;;;5033244;28;20232;-87
2023/06/24 01:46:37;;;;;;;4.28;3.15;;;30.70;90.80;;;;;;5033186;28;20629;-87
2023/06/24 01:49:13;;;;;;;4.18;2.90;;;30.80;90.60;;;;;;5039520;28;20279;-87
2023/06/24 01:51:48;;;;;;;2.92;2.72;;;30.90;91.00;;;;;;5054181;28;20215;-86
2023/06/24 01:54:22;;;;;;;3.85;2.80;;;30.40;90.30;;;;;;5046217;28;20216;-86
2023/06/24 01:56:55;;;;;;;3.55;3.25;;;30.00;90.90;;;;;;5052206;28;20204;-86
2023/06/24 01:59:29;;;;;;;3.38;3.08;;;29.80;90.10;;;;;;5050973;28;20247;-87
2023/06/24 02:02:02;;;;;;;5.70;3.35;;;29.70;90.50;;;;;;5046533;28;20212;-86
2023/06/24 02:04:36;;;;;;;3.28;3.08;;;29.20;91.40;;;;;;5043040;28;20251;-85
2023/06/24 02:07:08;;;;;;;3.42;3.13;;;28.70;91.70;;;;;;5042979;28;20208;-86
2023/06/24 02:09:40;;;;;;;3.63;3.08;;;28.10;92.70;;;;;;5035309;28;20573;-86
2023/06/24 02:12:12;;;;;;;5.75;3.10;;;27.90;92.20;;;;;;5047587;28;20197;-87
2023/06/24 02:14:44;;;;;;;5.00;3.38;;;27.60;93.00;;;;;;5040404;28;20579;-86
2023/06/24 02:17:15;;;;;;;3.88;3.08;;;27.40;93.20;;;;;;5052830;28;20295;-87
2023/06/24 02:19:48;;;;;;;3.28;3.00;;;27.10;92.90;;;;;;5051385;28;20227;-88
2023/06/24 02:22:20;;;;;;;4.57;3.55;;;26.60;93.50;;;;;;5044989;28;20201;-86
2023/06/24 02:24:51;;;;;;;4.23;3.10;;;26.20;94.20;;;;;;5045923;28;20308;-86
2023/06/24 02:27:23;;;;;;;5.30;3.33;;;25.80;95.30;;;;;;5036708;28;20274;-86
2023/06/24 02:29:54;;;;;;;3.80;3.50;;;25.70;96.60;;;;;;5041754;28;20201;-86
2023/06/24 02:32:25;;;;;;;4.23;3.80;;;25.50;96.40;;;;;;5037259;28;20203;-86
2023/06/24 02:35:00;;;;;;;5.70;3.40;;;25.40;98.00;;;;;;5052058;28;20254;-86
2023/06/24 02:37:31;;;;;;;5.40;3.53;;;25.10;98.70;;;;;;5051797;28;20310;-89
2023/06/24 02:40:03;;;;;;;7.93;3.47;;;24.80;98.90;;;;;;5036404;28;20205;-87
2023/06/24 02:42:34;;;;;;;5.10;3.23;;;24.60;99.50;;;;;;5057368;28;20200;-88
2023/06/24 02:45:07;;;;;;;4.10;3.33;;;24.40;99.70;;;;;;5065322;28;20228;-89
2023/06/24 02:47:39;;;;;;;3.63;3.10;;;24.10;99.90;;;;;;5051865;28;20205;-88
2023/06/24 02:50:13;;;;;;;4.37;3.47;;;24.00;99.90;;;;;;5045791;28;20216;-88
2023/06/24 02:52:44;;;;;;;4.00;3.07;;;23.80;99.90;;;;;;5039223;28;20220;-88
2023/06/24 02:55:17;;;;;;;3.33;3.03;;;23.70;99.90;;;;;;5045943;28;20209;-87
2023/06/24 02:57:48;;;;;;;3.83;3.13;;;23.70;99.90;;;;;;5053004;28;20208;-87
2023/06/24 03:00:21;;;;;;;2.97;2.70;;;23.60;99.90;;;;;;5053679;28;20212;-88
2023/06/24 03:02:52;;;;;;;4.57;3.30;;;23.40;99.90;;;;;;5052282;28;20238;-86
2023/06/24 03:05:25;;;;;;;3.73;3.10;;;23.40;99.90;;;;;;5041056;28;20237;-88
2023/06/24 03:07:56;;;;;;;3.70;3.00;;;23.30;99.90;;;;;;5051174;28;20215;-86
2023/06/24 03:10:27;;;;;;;6.23;3.67;;;23.30;99.90;;;;;;5043527;28;20207;-94
2023/06/24 03:13:08;;;;;;;4.80;3.10;;;23.20;99.90;;;;;;5056094;28;20200;-96
2023/06/24 03:15:41;;;;;;;6.13;3.40;;;23.10;99.90;;;;;;5047546;28;20731;-95
2023/06/24 03:18:13;;;;;;;6.27;4.10;;;23.00;99.90;;;;;;5045248;28;20204;-93
2023/06/24 03:20:47;;;;;;;4.80;3.47;;;22.80;99.90;;;;;;5039939;28;20196;-95
2023/06/24 03:23:18;;;;;;;5.57;3.37;;;22.60;99.90;;;;;;5046755;28;20263;-94
2023/06/24 03:25:49;;;;;;;4.70;3.30;;;22.40;99.90;;;;;;5054578;28;20255;-94
2023/06/24 03:28:21;;;;;;;3.60;3.30;;;22.30;99.90;;;;;;5046576;28;20201;-94
2023/06/24 03:30:56;;;;;;;3.40;2.90;;;22.20;99.90;;;;;;5040997;28;20216;-94
2023/06/24 03:33:29;;;;;;;4.97;3.10;;;22.00;99.90;;;;;;5051518;28;20219;-94
2023/06/24 03:36:03;;;;;;;6.30;3.50;;;22.00;99.90;;;;;;5045148;28;20208;-94
2023/06/24 03:38:34;;;;;;;5.63;3.43;;;21.90;99.90;;;;;;5051064;28;20201;-96
2023/06/24 03:41:06;;;;;;;5.17;2.90;;;21.80;99.90;;;;;;5052842;28;20231;-95
2023/06/24 03:43:38;;;;;;;3.83;3.40;;;21.80;99.90;;;;;;5049639;28;20200;-96
2023/06/24 03:46:11;;;;;;;4.20;3.30;;;21.70;99.90;;;;;;5069204;28;20291;-94
2023/06/24 03:48:43;;;;;;;3.97;3.00;;;21.60;99.90;;;;;;5051836;28;20219;-96
2023/06/24 03:51:19;;;;;;;5.77;3.60;;;21.50;99.90;;;;;;5047568;28;20205;-93
2023/06/24 03:53:54;;;;;;;4.67;3.37;;;21.40;99.90;;;;;;5048703;28;20204;-96
2023/06/24 03:56:26;;;;;;;4.77;3.53;;;21.20;99.90;;;;;;5049205;28;20642;-95
2023/06/24 03:58:58;;;;;;;4.43;3.70;;;21.00;99.90;;;;;;5058925;28;20720;-93
2023/06/24 04:01:31;;;;;;;4.63;3.37;;;20.90;99.90;;;;;;5060899;28;20193;-93
2023/06/24 04:04:02;;;;;;;3.87;3.33;;;20.80;99.90;;;;;;5068840;28;20230;-93
2023/06/24 04:06:36;;;;;;;3.93;3.20;;;20.70;99.90;;;;;;5059149;28;20292;-94
2023/06/24 04:09:09;;;;;;;4.73;3.40;;;20.60;99.90;;;;;;5051136;28;20204;-93
2023/06/24 04:11:41;;;;;;;5.87;4.03;;;20.50;99.90;;;;;;5054902;28;20548;-94
2023/06/24 04:14:12;;;;;;;4.00;3.60;;;20.40;99.90;;;;;;5050272;28;20228;-93
2023/06/24 04:16:44;;;;;;;6.20;3.67;;;20.40;99.90;;;;;;5050770;28;20212;-93
2023/06/24 04:19:16;;;;;;;6.67;3.90;;;20.30;99.90;;;;;;5047070;28;20200;-94
2023/06/24 04:21:50;;;;;;;5.17;3.40;;;20.30;99.90;;;;;;5045095;28;20282;-93
2023/06/24 04:24:21;;;;;;;4.40;3.30;;;20.20;99.90;;;;;;5045267;28;20197;-94
2023/06/24 04:26:52;;;;;;;3.97;3.20;;;20.20;99.90;;;;;;5054148;28;20258;-94
2023/06/24 04:29:23;;;;;;;5.83;3.97;;;20.10;99.90;;;;;;5047408;28;20724;-93
2023/06/24 04:31:54;;;;;;;4.60;3.63;;;20.00;99.90;;;;;;5051743;28;20212;-93
2023/06/24 04:34:26;;;;;;;5.93;3.90;;;20.00;99.90;;;;;;4704889;28;9999695;-94
2023/06/24 04:36:59;;;;;;;6.17;3.70;;;20.00;99.90;;;;;;5053485;28;20216;-94
2023/06/24 04:39:31;;;;;;;8.63;4.00;;;19.90;99.90;;;;;;5042095;28;20209;-94
2023/06/24 04:42:02;;;;;;;4.80;3.63;;;19.80;99.90;;;;;;5057448;28;20262;-94
2023/06/24 04:44:33;;;;;;;5.43;3.80;;;19.70;99.90;;;;;;5051351;28;20262;-93
2023/06/24 04:47:05;;;;;;;5.40;3.47;;;19.60;99.90;;;;;;5050048;28;20211;-94
2023/06/24 04:49:36;;;;;;;7.53;4.17;;;19.60;99.90;;;;;;5048195;28;20240;-94
2023/06/24 04:52:14;;;;;;;5.63;4.20;;;19.50;99.90;;;;;;5055065;28;20224;-94
2023/06/24 04:54:45;;;;;;;6.10;4.00;;;19.50;99.90;;;;;;5045696;28;20242;-94
2023/06/24 04:57:27;;;;;;;8.70;4.30;;;19.40;99.90;;;;;;5053778;28;20216;-95
2023/06/24 04:59:59;;;;;;;6.70;4.63;;;19.30;99.90;;;;;;5038237;28;20266;-93
2023/06/24 05:02:30;;;;;;;7.70;4.17;;;19.30;99.90;;;;;;5053124;28;20212;-94
2023/06/24 05:05:02;;;;;;;8.57;4.40;;;19.20;99.90;;;;;;5038256;28;20233;-93
2023/06/24 05:07:34;;;;;;;4.57;3.77;;;19.20;99.90;;;;;;5056895;28;20208;-98
2023/06/24 05:10:08;;;;;;;5.47;4.10;;;19.10;99.90;;;;;;5057287;28;20656;-93
2023/06/24 05:12:40;;;;;;;6.17;4.50;;;19.00;99.90;;;;;;5041421;28;20201;-92
2023/06/24 05:15:12;;;;;;;7.63;4.57;;;18.90;99.90;;;;;;5044337;28;20224;-93
2023/06/24 05:17:43;;;;;;;5.47;4.33;;;18.90;99.90;;;;;;5054910;28;20212;-93
2023/06/24 05:20:14;;;;;;;5.67;4.33;;;18.80;99.90;;;;;;5048554;28;20209;-93
2023/06/24 05:25:43;;;;;;;5.97;4.07;;;18.80;99.90;;;;;;5058193;28;20223;-93
2023/06/24 05:28:14;;;;;;;5.33;3.93;;;18.70;99.90;;;;;;5047075;28;20197;-93
2023/06/24 05:30:47;;;;;;;4.57;2.60;;;18.70;99.90;;;;;;5043836;28;20209;-93
2023/06/24 05:33:18;;;;;;;4.60;2.50;;;18.60;99.90;;;;;;5038423;28;20221;-93
2023/06/24 05:35:50;;;;;;;6.43;2.20;;;18.60;99.90;;;;;;5037988;28;20594;-93
2023/06/24 05:38:27;;;;;;;6.10;2.87;;;18.50;99.90;;;;;;5038631;28;20205;-94
2023/06/24 05:40:58;;;;;;;4.40;2.40;;;18.50;99.90;;;;;;5055938;28;20273;-92
2023/06/24 05:43:29;;;;;;;5.33;2.53;;;18.50;99.90;;;;;;5046399;28;20205;-92
2023/06/24 05:46:00;;;;;;;3.90;2.37;;;18.50;99.90;;;;;;5054971;28;20220;-94
2023/06/24 05:48:31;;;;;;;6.17;2.20;;;18.40;99.90;;;;;;5045194;28;20240;-92
2023/06/24 05:51:05;;;;;;;4.70;2.73;;;18.30;99.90;;;;;;5037565;28;20676;-93
2023/06/24 05:53:40;;;;;;;8.13;2.37;;;18.30;99.90;;;;;;5036967;28;20209;-93
2023/06/24 05:56:12;;;;;;;5.27;2.43;;;18.20;99.90;;;;;;5066350;28;20272;-93
2023/06/24 05:58:44;;;;;;;5.10;2.60;;;18.10;99.90;;;;;;5068104;28;20184;-93
2023/06/24 06:01:15;;;;;;;8.93;2.60;;;18.00;99.90;;;;;;5048145;28;20235;-92
2023/06/24 06:03:47;;;;;;;5.47;2.87;;;18.00;99.90;;;;;;5049077;28;20200;-93
2023/06/24 06:06:18;;;;;;;7.13;2.30;;;17.80;99.90;;;;;;5048067;28;20220;-92
2023/06/24 06:08:52;;;;;;;6.13;2.50;;;17.70;99.90;;;;;;5047687;28;20644;-93
2023/06/24 06:11:24;;;;;;;5.10;2.50;;;17.60;99.90;;;;;;5045207;28;20442;-92
2023/06/24 06:13:56;;;;;;;6.40;2.20;;;17.50;99.90;;;;;;5045983;28;20244;-92
2023/06/24 06:16:28;;;;;;;8.23;2.73;;;17.50;99.90;;;;;;5051703;28;20219;-91
2023/06/24 06:19:00;;;;;;;6.53;2.30;;;17.40;99.90;;;;;;5038979;28;20212;-92
2023/06/24 06:21:32;;;;;;;6.53;2.23;;;17.30;99.90;;;;;;5044373;28;20665;-92
2023/06/24 06:24:08;;;;;;;5.03;2.23;;;17.20;99.90;;;;;;5029395;28;20215;-93
2023/06/24 06:26:45;;;;;;;7.77;2.33;;;17.20;99.90;;;;;;5046375;28;20235;-93
2023/06/24 06:29:16;;;;;;;4.30;2.13;;;17.10;99.90;;;;;;5045871;28;20212;-92
2023/06/24 06:31:47;;;;;;;3.93;2.00;;;17.10;99.90;;;;;;5045701;28;20204;-92
2023/06/24 06:34:19;;;;;;;7.27;1.90;;;17.00;99.90;;;;;;5035936;28;20232;-92
2023/06/24 06:36:50;;;;;;;5.37;1.87;;;16.90;99.90;;;;;;5042329;28;20219;-91
2023/06/24 06:39:24;;;;;;;3.23;1.97;;;16.80;99.90;;;;;;5041476;28;20227;-92
2023/06/24 06:41:56;;;;;;;6.93;2.13;;;16.70;99.90;;;;;;5046416;28;20209;-92
2023/06/24 06:44:27;;;;;;;6.20;2.27;;;16.50;99.90;;;;;;5051682;28;20277;-91
2023/06/24 06:46:59;;;;;;;5.97;1.80;;;16.50;99.90;;;;;;5048233;28;20228;-91
2023/06/24 06:49:30;;;;;;;6.63;2.20;;;16.40;99.90;;;;;;5045384;28;20196;-92
2023/06/24 06:52:01;;;;;;;5.37;2.00;;;16.40;99.90;;;;;;5047383;28;20204;-91
2023/06/24 06:54:39;;;;;;;2.80;1.90;;;16.40;99.90;;;;;;5043398;28;20295;-91
2023/06/24 06:57:11;;;;;;;6.63;2.00;;;16.30;99.90;;;;;;5042127;28;20653;-91
2023/06/24 06:59:43;;;;;;;4.77;1.90;;;16.20;99.90;;;;;;5030624;28;20200;-91
2023/06/24 07:02:14;;;;;;;6.90;2.07;;;16.10;99.90;;;;;;5042868;28;20209;-91
2023/06/24 07:04:47;;;;;;;5.70;1.97;;;16.00;99.90;;;;;;5046096;28;20209;-92
2023/06/24 07:07:18;;;;;;;3.07;1.50;;;15.90;99.90;;;;;;5046652;28;20243;-91
2023/06/24 07:09:52;;;;;;;6.80;1.60;;;15.80;99.90;;;;;;5044521;28;20211;-91
2023/06/24 07:12:24;;;;;;;5.30;1.90;;;15.70;99.90;;;;;;5046555;28;20265;-91
2023/06/24 07:14:55;;;;;;;4.50;1.83;;;15.60;99.90;;;;;;5031197;28;20213;-92
2023/06/24 07:17:26;;;;;;;5.37;1.90;;;15.50;99.90;;;;;;5038779;28;20618;-91
2023/06/24 07:19:58;;;;;;;7.50;1.77;;;15.30;99.90;;;;;;5035131;28;20197;-91
2023/06/24 07:22:30;;;;;;;4.20;1.70;;;15.20;99.90;;;;;;5047289;28;20205;-91
2023/06/24 07:25:03;;;;;;;4.90;1.70;;;15.20;99.90;;;;;;5035970;28;20208;-91
2023/06/24 07:27:34;;;;;;;5.50;2.00;;;15.30;99.90;;;;;;5041779;28;20232;-92
2023/06/24 07:30:08;;;;;;;6.60;1.97;;;15.20;99.90;;;;;;5050241;28;20224;-90
2023/06/24 07:32:39;;;;;;;4.13;1.63;;;15.10;99.90;;;;;;5033564;28;20212;-90
2023/06/24 07:35:10;;;;;;;4.40;1.90;;;15.10;99.90;;;;;;5035601;28;20236;-91
2023/06/24 07:37:41;;;;;;;7.33;2.17;;;15.10;99.90;;;;;;5037742;28;20291;-91
2023/06/24 07:40:15;;;;;;;6.67;1.90;;;15.00;99.90;;;;;;5038037;28;20275;-91
2023/06/24 07:42:46;;;;;;;5.57;2.00;;;15.00;99.90;;;;;;5049237;28;20205;-90
2023/06/24 07:45:18;;;;;;;7.90;1.93;;;15.00;99.90;;;;;;5046300;28;20220;-90
2023/06/24 07:47:50;;;;;;;4.27;1.87;;;15.00;99.90;;;;;;5046260;28;20244;-90
2023/06/24 07:50:21;;;;;;;4.00;2.00;;;14.80;99.90;;;;;;5038226;28;20208;-90
2023/06/24 07:52:52;;;;;;;5.13;2.10;;;14.80;99.90;;;;;;5043126;28;20208;-90
2023/06/24 07:55:25;;;;;;;3.47;1.90;;;14.70;99.90;;;;;;5057552;28;20207;-90
2023/06/24 07:57:58;;;;;;;4.47;1.60;;;14.80;99.90;;;;;;5058165;28;20212;-90
2023/06/24 08:00:29;;;;;;;4.13;1.93;;;14.80;99.90;;;;;;5056629;28;20211;-91
2023/06/24 08:03:00;;;;;;;5.17;1.60;;;14.70;99.90;;;;;;5053274;28;20205;-91
2023/06/24 08:05:31;;;;;;;7.40;1.60;;;14.70;99.90;;;;;;5057917;28;20232;-90
2023/06/24 08:08:03;;;;;;;4.37;1.67;;;14.60;99.90;;;;;;5041855;28;20244;-91
2023/06/24 08:10:36;;;;;;;4.37;1.70;;;14.50;99.90;;;;;;5066267;28;20184;-90
2023/06/24 08:13:07;;;;;;;4.67;2.13;;;14.30;99.90;;;;;;5050391;28;20204;-91
2023/06/24 08:15:38;;;;;;;3.00;2.00;;;14.30;99.90;;;;;;5059886;28;20226;-91
2023/06/24 08:18:11;;;;;;;5.20;2.10;;;14.20;99.90;;;;;;5048700;28;20213;-92
2023/06/24 08:20:42;;;;;;;5.73;2.00;;;14.20;99.90;;;;;;5054664;28;20209;-92
2023/06/24 08:23:14;;;;;;;4.73;2.30;;;14.20;99.90;;;;;;5054017;28;20266;-91
2023/06/24 08:25:47;;;;;;;6.30;2.07;;;14.20;99.90;;;;;;5058133;28;20215;-90
2023/06/24 08:28:18;;;;;;;4.40;1.80;;;14.10;99.90;;;;;;5036797;28;20229;-90
2023/06/24 08:30:49;;;;;;;3.10;1.70;;;14.10;99.90;;;;;;5037973;28;20641;-90
2023/06/24 08:33:21;;;;;;;6.17;2.03;;;14.00;99.90;;;;;;5037390;28;20743;-91
2023/06/24 08:35:52;;;;;;;5.60;1.80;;;14.10;99.90;;;;;;5044796;28;20204;-91
2023/06/24 08:38:24;;;;;;;4.23;2.13;;;14.10;99.90;;;;;;5044656;28;20295;-91
2023/06/24 08:40:58;;;;;;;4.67;2.10;;;13.90;99.90;;;;;;5048344;28;20211;-91
2023/06/24 08:43:29;;;;;;;5.63;1.63;;;14.00;99.90;;;;;;5041676;28;20193;-91
2023/06/24 08:46:01;;;;;;;6.13;1.97;;;13.80;99.90;;;;;;5048924;28;20209;-91
2023/06/24 08:48:32;;;;;;;2.83;1.90;;;13.70;99.90;;;;;;5044434;28;20244;-91
2023/06/24 08:51:05;;;;;;;4.07;1.80;;;13.70;99.90;;;;;;5047846;28;20200;-90
2023/06/24 08:53:38;;;;;;;4.20;2.00;;;13.70;99.90;;;;;;5055850;28;20215;-91
2023/06/24 08:56:11;;;;;;;5.77;1.80;;;13.70;99.90;;;;;;5056329;28;20212;-91
2023/06/24 08:58:43;;;;;;;3.67;2.23;;;13.70;99.90;;;;;;5050403;28;20196;-91
2023/06/24 09:01:14;;;;;;;3.70;1.83;;;13.70;99.90;;;;;;5057070;28;20212;-91
2023/06/24 09:03:46;;;;;;;4.57;1.60;;;13.60;99.90;;;;;;5052601;28;20292;-92
2023/06/24 09:06:18;;;;;;;5.30;1.83;;;13.60;99.90;;;;;;5056365;28;20215;-91
2023/06/24 09:08:56;;;;;;;3.40;1.80;;;13.50;99.90;;;;;;5047973;28;20233;-91
2023/06/24 09:11:32;;;;;;;4.83;2.00;;;13.60;99.90;;;;;;5037297;28;20220;-91
2023/06/24 09:14:03;;;;;;;5.50;2.00;;;13.60;99.90;;;;;;5036988;28;20216;-92
2023/06/24 09:16:35;;;;;;;4.73;1.93;;;13.40;99.90;;;;;;5043036;28;20204;-92
2023/06/24 09:19:05;;;;;;;4.90;1.97;;;13.40;99.90;;;;;;5040069;28;20267;-92
2023/06/24 09:21:38;;;;;;;4.20;2.07;;;13.30;99.90;;;;;;5038927;28;20316;-92
2023/06/24 09:24:10;;;;;;;4.57;1.90;;;13.20;99.90;;;;;;5054817;28;20215;-92
2023/06/24 09:26:46;;;;;;;2.93;1.70;;;13.10;99.90;;;;;;5052969;28;20238;-92
2023/06/24 09:29:18;;;;;;;5.17;2.00;;;13.10;99.90;;;;;;5058030;28;20212;-93
2023/06/24 09:31:52;;;;;;;3.00;1.57;;;13.00;99.90;;;;;;5061625;28;20193;-92
2023/06/24 09:34:24;;;;;;;3.87;1.73;;;12.90;99.90;;;;;;5076006;28;20224;-92
2023/06/24 09:36:56;;;;;;;5.80;1.80;;;12.90;99.90;;;;;;5041728;28;20209;-92
2023/06/24 09:39:30;;;;;;;3.50;1.93;;;12.90;99.90;;;;;;5038020;28;20213;-92
2023/06/24 09:42:06;;;;;;;4.07;1.60;;;12.80;99.90;;;;;;5038954;28;20213;-92
2023/06/24 09:44:37;;;;;;;2.83;1.70;;;12.80;99.90;;;;;;5037281;28;20282;-91
2023/06/24 09:47:09;;;;;;;3.97;1.90;;;12.80;99.90;;;;;;5036515;28;20727;-91
2023/06/24 09:49:40;;;;;;;3.30;1.53;;;12.70;99.90;;;;;;5035799;28;20213;-92
2023/06/24 09:52:10;;;;;;;2.87;1.20;;;12.70;99.90;;;;;;5036239;28;20255;-91
2023/06/24 09:54:42;;;;;;;4.70;1.80;;;12.60;99.90;;;;;;5037420;28;20213;-92
2023/06/24 09:57:16;;;;;;;3.30;1.70;;;12.50;99.90;;;;;;5046149;28;20229;-91
2023/06/24 09:59:49;;;;;;;5.30;1.80;;;12.50;99.90;;;;;;5055032;28;20204;-92
2023/06/24 10:02:21;;;;;;;3.53;1.80;;;12.40;99.90;;;;;;5042764;28;20208;-93
2023/06/24 10:04:54;;;;;;;6.57;2.10;;;12.40;99.90;;;;;;5037960;28;20219;-91
2023/06/24 10:07:27;;;;;;;5.70;1.60;;;12.40;99.90;;;;;;5039764;28;20193;-91
2023/06/24 10:09:58;;;;;;;3.40;2.00;;;12.40;99.90;;;;;;5052857;28;20213;-91
2023/06/24 10:12:31;;;;;;;5.10;2.10;;;12.30;99.90;;;;;;5036689;28;20251;-91
2023/06/24 10:15:04;;;;;;;4.63;2.10;;;12.40;99.90;;;;;;5050717;28;20274;-91
2023/06/24 10:17:35;;;;;;;5.60;1.70;;;12.40;99.90;;;;;;5055201;28;20200;-94
2023/06/24 10:20:08;;;;;;;3.00;1.77;;;12.40;99.90;;;;;;5064393;28;20184;-93
2023/06/24 10:22:39;;;;;;;6.17;1.80;;;12.40;99.90;;;;;;5062126;28;20212;-91
2023/06/24 10:25:14;;;;;;;5.17;1.67;;;12.40;99.90;;;;;;5046642;28;20354;-90
2023/06/24 10:27:47;;;;;;;3.77;2.10;;;12.30;99.90;;;;;;5053179;28;20228;-90
2023/06/24 10:30:22;;;;;;;6.13;1.67;;;12.40;99.90;;;;;;5056889;28;20208;-91
2023/06/24 10:32:55;;;;;;;3.97;1.77;;;12.30;99.90;;;;;;5069727;28;20337;-91
2023/06/24 10:35:29;;;;;;;3.37;1.60;;;12.30;99.90;;;;;;5067157;28;20196;-92
2023/06/24 10:38:02;;;;;;;4.23;1.70;;;12.30;99.90;;;;;;5062255;28;20227;-92
2023/06/24 10:40:41;;;;;;;3.87;1.83;;;12.10;99.90;;;;;;5064146;28;20193;-91
2023/06/24 10:43:32;;;;;;;4.97;1.53;;;12.20;99.90;;;;;;5043692;28;20613;-92
2023/06/24 10:46:16;;;;;;;3.40;1.67;;;12.20;99.90;;;;;;5038522;28;20213;-92
2023/06/24 10:48:47;;;;;;;4.20;1.60;;;12.10;99.90;;;;;;5050561;28;20236;-92
2023/06/24 10:51:19;;;;;;;4.33;1.80;;;12.00;99.90;;;;;;5055498;28;20220;-91
2023/06/24 10:53:49;;;;;;;5.80;2.00;;;12.00;99.90;;;;;;5035823;28;20649;-92
2023/06/24 10:56:21;;;;;;;4.97;1.70;;;12.00;99.90;;;;;;5047562;28;20204;-92
2023/06/24 10:59:00;;;;;;;2.83;1.70;;;12.00;99.90;;;;;;5053734;28;20196;-90
2023/06/24 11:01:32;;;;;;;5.20;2.47;;;11.90;99.90;;;;;;5055400;28;20208;-91
2023/06/24 11:04:08;;;;;;;3.10;1.50;;;11.90;99.90;;;;;;5055277;28;20212;-91
2023/06/24 11:06:41;;;;;;;4.50;2.00;;;11.80;99.90;;;;;;5041836;28;20258;-91
2023/06/24 11:09:13;;;;;;;3.53;1.73;;;11.80;99.90;;;;;;5033060;28;20245;-90
2023/06/24 11:11:44;;;;;;;4.20;1.73;;;11.80;99.90;;;;;;5035498;28;20205;-91
2023/06/24 11:14:18;;;;;;;5.20;2.20;;;11.80;99.90;;;;;;5049248;28;20221;-92
2023/06/24 11:16:51;;;;;;;3.50;1.80;;;11.80;99.90;;;;;;5041943;28;20209;-91
2023/06/24 11:19:24;;;;;;;3.00;2.00;;;11.80;99.90;;;;;;5033823;28;20213;-91
2023/06/24 11:21:55;;;;;;;5.03;2.37;;;11.80;99.90;;;;;;5034918;28;20201;-91
2023/06/24 11:24:27;;;;;;;7.20;2.40;;;11.70;99.90;;;;;;5035269;28;20220;-92
2023/06/24 11:26:58;;;;;;;2.73;1.93;;;11.70;99.90;;;;;;5035055;28;20213;-92
2023/06/24 11:29:34;;;;;;;5.63;2.07;;;11.70;99.90;;;;;;5032875;28;20229;-91
2023/06/24 11:32:10;;;;;;;4.23;2.00;;;11.70;99.90;;;;;;5046128;28;20223;-92
2023/06/24 11:34:42;;;;;;;5.83;1.87;;;11.60;99.90;;;;;;5054293;28;20230;-91
2023/06/24 11:37:14;;;;;;;2.80;1.90;;;11.70;99.90;;;;;;5044613;28;20201;-91
2023/06/24 11:39:47;;;;;;;4.53;1.90;;;11.70;99.90;;;;;;5039150;28;20200;-92
2023/06/24 11:42:18;;;;;;;5.57;2.23;;;11.70;99.90;;;;;;5054259;28;20216;-91
2023/06/24 11:44:52;;;;;;;3.90;1.80;;;11.70;99.90;;;;;;5053461;28;20208;-91
2023/06/24 11:47:26;;;;;;;5.87;1.90;;;11.70;99.90;;;;;;5043680;28;20258;-91
2023/06/24 11:50:00;;;;;;;4.63;1.90;;;11.80;99.90;;;;;;5034116;28;20256;-91
2023/06/24 11:52:39;;;;;;;3.73;1.57;;;11.80;99.90;;;;;;5052285;28;20617;-92
2023/06/24 11:55:15;;;;;;;3.20;1.57;;;11.80;99.90;;;;;;5053622;28;20234;-91
2023/06/24 11:57:57;;;;;;;4.03;1.93;;;11.90;99.90;;;;;;5054061;28;20203;-91
2023/06/24 12:00:32;;;;;;;4.03;1.60;;;11.90;99.90;;;;;;5034920;28;20259;-91
2023/06/24 12:03:05;;;;;;;4.20;1.67;;;11.90;99.90;;;;;;5042907;28;20270;-92
2023/06/24 12:05:44;;;;;;;6.23;1.60;;;12.00;99.90;;;;;;5049588;28;20565;-92
2023/06/24 12:08:16;;;;;;;4.80;1.70;;;12.00;99.90;;;;;;5044394;28;20562;-92
2023/06/24 12:10:48;;;;;;;3.63;1.73;;;11.90;99.90;;;;;;5040955;28;20205;-92
2023/06/24 12:13:20;;;;;;;6.17;2.50;;;11.90;99.90;;;;;;5043537;28;20219;-91
2023/06/24 12:15:53;;;;;;;4.50;2.00;;;11.70;99.90;;;;;;5038301;28;20240;-91
2023/06/24 12:18:25;;;;;;;5.77;2.00;;;11.80;99.90;;;;;;5034169;28;20201;-91
2023/06/24 12:20:57;;;;;;;5.57;2.57;;;11.70;99.90;;;;;;5046613;28;20212;-91
2023/06/24 12:23:29;;;;;;;4.47;2.50;;;11.80;99.90;;;;;;5058157;28;20215;-91
2023/06/24 12:26:00;;;;;;;3.00;2.50;;;11.70;99.90;;;;;;5057585;28;20611;-91
2023/06/24 12:28:33;;;;;;;3.83;2.33;;;11.80;99.90;;;;;;5058667;28;20228;-92
2023/06/24 12:31:07;;;;;;;3.50;2.30;;;11.80;99.90;;;;;;5072150;28;20352;-92
2023/06/24 12:33:38;;;;;;;3.33;2.10;;;11.80;99.90;;;;;;5066899;28;20208;-91
2023/06/24 12:39:23;;;;;;;4.43;2.67;;;11.90;99.90;;;;;;5041771;28;20247;-91
2023/06/24 12:41:55;;;;;;;4.23;2.40;;;11.90;99.90;;;;;;5058286;28;20201;-92
2023/06/24 12:44:27;;;;;;;3.60;2.23;;;12.00;99.90;;;;;;5042953;28;20196;-92
2023/06/24 12:47:02;;;;;;;4.97;2.10;;;12.10;99.90;;;;;;5040739;28;20204;-91
2023/06/24 12:49:33;;;;;;;4.77;2.20;;;12.20;99.90;;;;;;5040289;28;20235;-92
2023/06/24 12:52:05;;;;;;;3.70;2.43;;;12.20;99.90;;;;;;5036518;28;20641;-91
2023/06/24 12:54:37;;;;;;;3.03;2.23;;;12.10;99.90;;;;;;5037976;28;20688;-91
2023/06/24 12:57:09;;;;;;;4.40;2.70;;;12.20;99.90;;;;;;5054934;28;20579;-92
2023/06/24 12:59:44;;;;;;;4.27;2.93;;;12.20;99.90;;;;;;5049590;28;20200;-92
2023/06/24 13:02:17;;;;;;;3.53;2.73;;;12.20;99.90;;;;;;5041739;28;20722;-92
2023/06/24 13:04:49;;;;;;;4.43;2.30;;;12.20;99.90;;;;;;5037204;28;20279;-91
2023/06/24 13:07:21;;;;;;;2.60;2.20;;;12.20;99.90;;;;;;5049827;28;20732;-91
2023/06/24 13:09:53;;;;;;;4.53;2.33;;;12.30;99.90;;;;;;5055402;28;20304;-91
2023/06/24 13:12:25;;;;;;;4.87;2.20;;;12.30;99.90;;;;;;5050853;28;20224;-91
2023/06/24 13:14:56;;;;;;;5.33;2.30;;;12.30;99.90;;;;;;5051866;28;20219;-91
2023/06/24 13:17:29;;;;;;;2.50;2.30;;;12.30;99.90;;;;;;5045412;28;21126;-94
2023/06/24 13:20:01;;;;;;;3.90;2.20;;;12.50;99.90;;;;;;5040750;28;20292;-91